Tiempo atmosférico en la estación meteorológica de Salamanca, Salamanca (775 m.)



Fecha
DESCASC
Temp. máxima en grados centígrados (hora)
DESCASC
Temp. mínima en grados centígrados (hora)
DESCASC
Temp. media en grados centígrados
DESCASC
Racha de viento máxima en m/sg (hora)
DESCASC
Velocidad máxima media en intervalos de 10 minutos(hora)
DESCASC
Precipitaciones diarias en mm
DESCASC
Precipitaciones de 00:00 a 06:00 en mm
DESCASC
Precipitaciones de 06:00 a 12:00 en mm
DESCASC
Precipitaciones de 12:00 a 18:00 en mm
DESCASC
Precipitaciones de 18:00 a 24:00 en mm
DESCASC
22-01-2020 10.4 (15:50) 2.8 (09:10) 6.6 8.89 (02:40) 4.17 (15:20) 0 0 0 0 0
21-01-2020 5.4 (15:50) -2 (08:10) 1.7 11.67 (22:00) 5.28 (21:10) 0.1 0.1 0 0 0
20-01-2020 5.1 (15:40) -0.5 (07:40) 2.3 12.78 (16:00) 5.56 (16:00) 0 0 0 0 0
19-01-2020 8.8 (13:50) 1.1 (00:00) 5 16.94 (14:20) 8.06 (14:20) 0.2 0.2 0 0 0
18-01-2020 14.3 (15:40) 5.2 (00:00) 9.8 16.11 (17:00) 7.22 (17:00) 3.7 1.3 1.6 0 0.8
17-01-2020 11.7 (16:40) 5.9 (00:00) 8.8 7.78 (15:20) 4.17 (06:20) 0.1 0 0.1 0 0
16-01-2020 12.8 (13:50) 8.4 (00:00) 10.6 11.67 (20:50) 6.11 (12:40) 0.6 0 0 0 0.6
15-01-2020 12.2 (15:50) 5.9 (00:00) 9 12.78 (07:50) 6.39 (10:00) 1.2 0 1.1 0.1 0
14-01-2020 9.1 (16:30) -2.1 (-00:0) 3.5 11.11 (15:50) 5.56 (22:50) 0 0 0 0 0
13-01-2020 11.5 (16:40) -4 (-00:0) 3.8 5.83 (18:40) 2.78 (18:40) 0 0 0 0 0
12-01-2020 9.5 (15:40) -4.6 (08:30) 2.5 6.39 (16:50) 2.22 (16:10) 0 0 0 0 0
11-01-2020 7.6 (16:40) -2.1 (-00:0) 2.8 3.89 (19:20) 1.94 (19:10) 0 0 0 0 0
10-01-2020 9.3 (15:40) -1.4 (-00:0) 4 6.94 (13:50) 3.33 (14:10) 0 0 0 0 0
09-01-2020 14.2 (16:00) -0.3 (00:00) 6.9 8.89 (16:20) 4.44 (19:20) 0 0 0 0 0
08-01-2020 11.8 (16:50) -3.7 (-00:0) 4.1 3.33 (16:10) 1.67 (16:00) 0 0 0 0 0
07-01-2020 8.5 (17:00) -2.1 (-00:0) 3.2 3.89 (07:50) 1.94 (07:50) 0 0 0 0 0
06-01-2020 10.5 (15:50) -1.7 (-00:0) 4.4 3.61 (20:40) 2.22 (20:40) 0 0 0 0 0
05-01-2020 3.6 (16:30) 0.6 (00:00) 2.1 4.72 (01:30) 2.22 (01:40) 0 0 0 0 0
04-01-2020 6.4 (12:30) 1.3 (00:00) 3.9 7.5 (15:00) 4.17 (16:20) 0 0 0 0 0
03-01-2020 10.7 (15:10) 2.8 (00:00) 6.7 4.72 (00:50) 2.5 (00:20) 0 0 0 0 0
02-01-2020 14.5 (15:00) -1.5 (-00:0) 6.5 4.17 (14:30) 1.94 (15:10) 0 0 0 0 0
01-01-2020 17.2 (16:00) -2.3 (-00:0) 7.5 3.33 (20:10) 1.67 (20:10) 0 0 0 0 0
31-12-2019 15.7 (16:20) -2.5 (-00:0) 6.6 3.06 (17:10) 1.67 (17:10) 0 0 0 0 0
30-12-2019 16 (15:30) -2.1 (-00:0) 7 1.11 (01:20) 0.28 (01:20) 0 0 0 0 0
29-12-2019 15.6 (16:10) -1.9 (-00:0) 6.9 3.06 (10:30) 1.67 (10:30) 0 0 0 0 0
28-12-2019 9 (16:10) -1.2 (-00:0) 3.9 5.83 (16:40) 2.78 (16:40) 0 0 0 0 0
27-12-2019 4.3 (15:10) 0.9 (00:00) 2.6 4.44 (15:10) 2.22 (15:50) 0 0 0 0 0
26-12-2019 12.1 (15:10) 3.2 (00:00) 7.7 5.28 (13:30) 3.33 (13:30) 0 0 0 0 0
25-12-2019 15 (15:50) 3.5 (00:00) 9.3 5.28 (20:40) 2.78 (20:40) 0 0 0 0 0

Gráficas

Temp. máximas Temp. mínimas Temp. medias Precipitaciones Rachas de viento máximas Velocidades máximas media en intervalos de 10 minutos

Datos horarios

Fecha y hora oficial Temperatura (ºC) Velocidad del viento (km/h) Dirección del viento Racha (km/h) Dirección de racha Precipitación (mm) Presión (hPa) Tendencia (hPa) Humedad (%)
2020-01-23 23:00:00 4.9 0 Calma 4 Este 0 929.2 1.3 83
2020-01-23 22:00:00 5.4 0 Calma 6 Este 0 928.9 1.6 79
2020-01-23 21:00:00 5.8 0 Calma 12 Nordeste 0 928.5 1.5 76
2020-01-23 20:00:00 6.8 4 Este 18 Este 0 927.9 1.1 71
2020-01-23 19:00:00 7.3 3 Nordeste 15 Este 0 927.3 0.4 69
2020-01-23 18:00:00 8.3 3 Sudeste 19 Este 0 927 0 65
2020-01-23 17:00:00 9.6 8 Este 22 Este 0 926.8 -0.7 61
2020-01-23 16:00:00 9.3 9 Este 22 Este 0 926.9 -1 63
2020-01-23 15:00:00 9 7 Este 20 Sudeste 0 927 -1.6 64
2020-01-23 14:00:00 8.6 12 Este 22 Este 0 927.5 -0.8 69
2020-01-23 13:00:00 7.8 9 Este 29 Este 0 927.9 0.1 74
2020-01-23 12:00:00 7 13 Este 27 Este 0 928.6 1.5 77
2020-01-23 11:00:00 5 7 Nordeste 20 Nordeste 0 928.3 1.5 84
2020-01-23 10:00:00 3.5 4 Nordeste 13 Nordeste 0 927.8 1.1 89
2020-01-23 09:00:00 2.6 0 Calma 10 Nordeste 0 927.1 0.3 91
2020-01-23 08:00:00 2.5 3 Este 14 Este 0 926.8 -0.3 91
2020-01-23 07:00:00 2.8 4 Este 9 Nordeste 0 926.7 -0.6 91
2020-01-23 06:00:00 3.5 4 Este 12 Nordeste 0 926.8 -0.7 89
2020-01-23 05:00:00 4.2 3 Este 13 Este 0 927.1 -0.8 88
2020-01-23 04:00:00 4.2 8 Nordeste 14 Nordeste 0 927.3 -1 89
2020-01-23 03:00:00 4.4 5 Este 9 Este 0 927.5 -0.7 89
2020-01-23 02:00:00 4.4 4 Este 11 Este 0 927.9 -0.6 89
2020-01-23 01:00:00 4.4 4 Nordeste 14 Este 0 928.3 0.1 86
2020-01-23 00:00:00 4.4 4 Nordeste 11 Nordeste 0 928.2 0.1 85
2020-01-22 23:00:00 4.2 4 Nordeste 9 Nordeste 0 928.5 0.5 82
2020-01-22 22:00:00 5.6 5 Este 14 Nordeste 0 928.2 0.7 77
2020-01-22 21:00:00 5.6 5 Este 12 Norte 0 928.1 0.8 77
2020-01-22 20:00:00 5.8 5 Este 15 Nordeste 0 928 0.5 73
2020-01-22 19:00:00 6.6 7 Nordeste 20 Este 0 927.5 -0.3 68
2020-01-22 18:00:00 8.1 12 Nordeste 23 Este 0 927.3 -0.8 61
2020-01-22 17:00:00 9.8 9 Nordeste 28 Nordeste 0 927.5 -1.3 58
2020-01-22 16:00:00 9.7 14 Nordeste 31 Nordeste 0 927.8 -1.8 58
2020-01-22 15:00:00 8.9 11 Este 32 Este 0 928.1 -2.1 68
2020-01-22 14:00:00 8.8 14 Este 31 Este 0 928.8 -1.5 67
2020-01-22 13:00:00 7.3 13 Nordeste 26 Nordeste 0 929.6 -0.6 73
2020-01-22 12:00:00 5 14 Nordeste 28 Nordeste 0 930.2 0.3 84
2020-01-22 11:00:00 3.8 9 Nordeste 24 Nordeste 0 930.3 0.4 89
2020-01-22 10:00:00 2.9 9 Nordeste 22 Nordeste 0 930.2 0.5 92
2020-01-22 09:00:00 2.9 9 Nordeste 20 Este 0 929.9 0 92
2020-01-22 08:00:00 3.2 7 Nordeste 23 Nordeste 0 929.9 -0.1 91
2020-01-22 07:00:00 3.4 9 Nordeste 26 Nordeste 0 929.7 -0.4 91
2020-01-22 06:00:00 3.4 9 Nordeste 28 Nordeste 0 929.9 0 91
2020-01-22 05:00:00 3.3 9 Nordeste 25 Nordeste 0 930 0.1 90
2020-01-22 04:00:00 3.2 11 Nordeste 28 Nordeste 0 930.1 -0.4 88
2020-01-22 03:00:00 3.4 8 Nordeste 32 Este 0 929.9 -0.4 86
2020-01-22 02:00:00 3.6 9 Nordeste 23 Nordeste 0 929.9 -0.1 86
2020-01-22 01:00:00 3.2 8 Nordeste 25 Este 0 930.5 1 87
2020-01-22 00:00:00 3 7 Este 26 Nordeste 0 930.3 1.1 88
2020-01-21 23:00:00 3.2 12 Nordeste 38 Nordeste 0 930 0.7 86
2020-01-21 22:00:00 3.3 17 Nordeste 42 Nordeste 0 929.5 0.2 85
2020-01-21 21:00:00 3.1 16 Nordeste 36 Nordeste 0 929.2 -0.2 85
2020-01-21 20:00:00 3.2 13 Nordeste 35 Nordeste 0 929.3 -0.2 86
2020-01-21 19:00:00 3.6 11 Nordeste 40 Nordeste 0 929.3 0 83
2020-01-21 18:00:00 4.6 12 Nordeste 40 Este 0 929.4 -0.7 76
2020-01-21 17:00:00 5 15 Nordeste 40 Nordeste 0 929.5 -1.5 73
2020-01-21 16:00:00 5.3 10 Nordeste 38 Nordeste 0 929.3 -2.5 73
2020-01-21 15:00:00 4.8 13 Nordeste 35 Nordeste 0 930.1 -3 74
2020-01-21 14:00:00 4.2 14 Nordeste 33 Nordeste 0 931 -2.7 77
2020-01-21 13:00:00 3.7 12 Nordeste 25 Nordeste 0 931.8 -1.8 78
2020-01-21 12:00:00 2.5 10 Nordeste 30 Nordeste 0 933.1 -0.5 78
2020-01-21 11:00:00 2 11 Nordeste 26 Nordeste 0 933.7 -0.3 79
2020-01-21 10:00:00 0.6 8 Nordeste 18 Nordeste 0 933.6 -0.2 87
2020-01-21 09:00:00 -0.8 6 Nordeste 14 Nordeste 0 933.6 -0.4 88
2020-01-21 08:00:00 -1.8 0 Calma 5 Este 0 934 -0.8 91
2020-01-21 07:00:00 -1.8 3 Este 5 Este 0 933.8 -1.6 91
2020-01-21 06:00:00 -1.7 3 Este 7 Este 0 934 -1.5 90
2020-01-21 05:00:00 -0.7 5 Este 15 Nordeste 0 934.8 -1.1 88
2020-01-21 04:00:00 -0.6 6 Este 20 Nordeste 0 935.4 -1.2 88
2020-01-21 03:00:00 -0.5 8 Este 22 Este 0 935.5 -1.6 87
2020-01-21 02:00:00 -0.1 9 Nordeste 22 Este 0 935.9 -1.1 87
2020-01-21 01:00:00 -0.2 8 Nordeste 30 Este 0.1 936.6 -0.3 91
2020-01-21 00:00:00 -0.3 9 Nordeste 28 Este 0 937.1 0.9 91
2020-01-20 23:00:00 0 9 Nordeste 28 Este 0 937 0.9 89
2020-01-20 22:00:00 0.5 13 Nordeste 30 Este 0 936.9 1.2 76
2020-01-20 21:00:00 1.1 7 Este 23 Nordeste 0 936.2 1.1 65
2020-01-20 20:00:00 1.8 9 Nordeste 25 Nordeste 0 936.1 1.1 62
2020-01-20 19:00:00 2.2 6 Nordeste 34 Nordeste 0 935.7 0.7 60
2020-01-20 18:00:00 3 14 Nordeste 32 Este 0 935.1 -0.4 56
2020-01-20 17:00:00 3.4 13 Nordeste 43 Nordeste 0 935 -1.2 53
2020-01-20 16:00:00 4.2 20 Nordeste 46 Este 0 935 -2.1 49
2020-01-20 15:00:00 3.9 11 Nordeste 43 Norte 0 935.5 -2.6 52
2020-01-20 14:00:00 3.1 13 Nordeste 35 Nordeste 0 936.2 -2 54
2020-01-20 13:00:00 2 12 Nordeste 43 Nordeste 0 937.1 -0.8 57
2020-01-20 12:00:00 2 12 Nordeste 42 Nordeste 0 938.1 0.6 59
2020-01-20 11:00:00 1 14 Nordeste 38 Nordeste 0 938.2 0.8 61
2020-01-20 10:00:00 0.6 13 Nordeste 32 Nordeste 0 937.9 0.6 64
2020-01-20 09:00:00 -0.5 10 Nordeste 31 Norte 0 937.5 -0.5 66
2020-01-20 08:00:00 -0.2 12 Nordeste 25 Nordeste 0 937.4 -1.1 66
2020-01-20 07:00:00 -0.2 9 Nordeste 30 Norte 0 937.3 -1.9 67
2020-01-20 06:00:00 -0.1 13 Nordeste 26 Nordeste 0 938 -1.4 66
2020-01-20 05:00:00 0.2 12 Nordeste 28 Nordeste 0 938.5 -1.3 65
2020-01-20 04:00:00 0.3 8 Nordeste 27 Nordeste 0 939.2 -1 63
2020-01-20 03:00:00 0.8 11 Nordeste 31 Nordeste 0 939.4 -0.8 61
2020-01-20 02:00:00 1 10 Nordeste 25 Norte 0 939.8 -0.5 63
2020-01-20 01:00:00 1.1 10 Nordeste 24 Nordeste 0 940.2 0.2 64
2020-01-20 00:00:00 1.2 9 Nordeste 24 Nordeste 0 940.2 0.3 63
2020-01-19 23:00:00 1.4 9 Nordeste 31 Nordeste 0 940.3 0.9 60
2020-01-19 22:00:00 1.9 10 Nordeste 51 Nordeste 0 940 1 57
2020-01-19 21:00:00 2.2 13 Nordeste 40 Nordeste 0 939.9 1.5 55
2020-01-19 20:00:00 2.7 13 Nordeste 35 Nordeste 0 939.4 1.9 52
2020-01-19 19:00:00 3.8 19 Nordeste 40 Nordeste 0 939 1.8 48
2020-01-19 18:00:00 5.4 12 Nordeste 54 Nordeste 0 938.4 1.2 45
2020-01-19 17:00:00 6.9 17 Nordeste 53 Nordeste 0 937.5 0.5 41
2020-01-19 16:00:00 8.1 23 Nordeste 57 Nordeste 0 937.2 0 42
2020-01-19 15:00:00 8 27 Nordeste 61 Nordeste 0 937.2 0.2 42
2020-01-19 14:00:00 8.3 24 Nordeste 61 Nordeste 0 937 0 41
2020-01-19 13:00:00 7.8 21 Nordeste 59 Nordeste 0 937.2 0.8 45
2020-01-19 12:00:00 7.4 17 Nordeste 50 Nordeste 0 937 1.2 59
2020-01-19 11:00:00 5.5 13 Nordeste 48 Nordeste 0 937 1.9 78
2020-01-19 10:00:00 3.8 0 Calma 15 Noroeste 0 936.4 2.4 88
2020-01-19 09:00:00 3.4 0 Calma 13 Nordeste 0 935.8 2.3 90
2020-01-19 08:00:00 3.5 3 Noroeste 14 Norte 0 935.1 1.8 92
2020-01-19 07:00:00 2.9 0 Calma 10 Noroeste 0 934 0.7 95
2020-01-19 06:00:00 3.4 0 Calma 13 Noroeste 0 933.5 0.5 94
2020-01-19 05:00:00 4.2 4 Oeste 20 Oeste 0 933.3 0.3 94
2020-01-19 04:00:00 4.7 8 Oeste 20 Oeste 0 933.3 0.2 93
2020-01-19 03:00:00 5.5 10 Oeste 19 Noroeste 0 933 0.1 92
2020-01-19 02:00:00 5.6 8 Oeste 15 Oeste 0.1 933 0.2 92
2020-01-19 01:00:00 5.9 9 Oeste 15 Oeste 0.1 933.1 0.4 90
2020-01-19 00:00:00 5.6 6 Oeste 24 Sudoeste 0 932.9 0.7 88
2020-01-18 23:00:00 5.8 10 Oeste 22 Oeste 0 932.8 0.7 87
2020-01-18 22:00:00 6.4 10 Oeste 22 Oeste 0 932.7 1 87
2020-01-18 21:00:00 7.3 10 Oeste 35 Oeste 0.8 932.2 1.5 87
2020-01-18 20:00:00 9.5 10 Oeste 44 Oeste 0 932.1 1.7 71
2020-01-18 19:00:00 10.6 19 Oeste 48 Sudoeste 0 931.7 0.5 70
2020-01-18 18:00:00 11.3 17 Sudoeste 51 Sur 0 930.7 -1.3 69
2020-01-18 17:00:00 12.5 26 Sudoeste 58 Sudoeste 0 930.4 -3 63
2020-01-18 16:00:00 13.4 24 Sudoeste 46 Sudoeste 0 931.2 -3.7 66
2020-01-18 15:00:00 13.2 20 Sudoeste 41 Sudoeste 0 932 -4 68
2020-01-18 14:00:00 12.2 11 Sur 38 Sur 0 933.4 -2.5 73
2020-01-18 13:00:00 12.2 18 Sur 37 Sur 0 934.9 -1 73
2020-01-18 12:00:00 10.7 15 Sur 36 Sur 0 936 -0.6 81
2020-01-18 11:00:00 9.5 18 Sur 40 Sur 0 935.9 -1.2 85
2020-01-18 10:00:00 8.5 15 Sur 36 Sur 0.1 935.9 -1.6 87
2020-01-18 09:00:00 7.7 6 Sur 23 Sudeste 0 936.6 -1.4 89
2020-01-18 08:00:00 6.8 0 Calma 13 Sudeste 0.4 937.1 -1.7 93
2020-01-18 07:00:00 6.8 5 Sudeste 13 Sudeste 1.1 937.5 -2.3 93
2020-01-18 06:00:00 6.4 4 Sudeste 14 Sur 0.6 938 -1.8 94
2020-01-18 05:00:00 5.3 2 Sudeste 8 Sudeste 0.7 938.8 -1.3 92
2020-01-18 04:00:00 5.3 0 Calma 7 Este 0 939.8 -0.7 87
2020-01-18 03:00:00 5.3 0 Calma 5 Este 0 939.8 -1 86
2020-01-18 02:00:00 5.7 0 Calma 6 Este 0 940.1 -0.4 84
2020-01-18 01:00:00 5.7 0 Calma 7 Este 0 940.5 -0.7 82
2020-01-18 00:00:00 6.2 0 Calma 8 Sudoeste 0 940.8 -0.9 78
2020-01-17 23:00:00 6.2 2 Este 8 Nordeste 0 940.5 -1.6 77
2020-01-17 22:00:00 6.8 6 Nordeste 12 Este 0 941.2 -0.1 73
2020-01-17 21:00:00 7.3 2 Este 8 Este 0 941.7 1 67
2020-01-17 20:00:00 8.1 3 Oeste 9 Norte 0 942.1 1.2 59
2020-01-17 19:00:00 8.7 2 Noroeste 9 Oeste 0 941.3 0.5 57
2020-01-17 18:00:00 9.2 3 Sudoeste 15 Oeste 0 940.7 0.3 57
2020-01-17 17:00:00 10.8 11 Oeste 23 Oeste 0 940.9 0.2 49
2020-01-17 16:00:00 10.7 11 Oeste 28 Oeste 0 940.8 -0.4 52
2020-01-17 15:00:00 10.5 13 Sudoeste 27 Sudoeste 0 940.4 -1.1 54
2020-01-17 14:00:00 10.2 10 Oeste 25 Sudoeste 0 940.7 -0.4 61
2020-01-17 13:00:00 9.3 12 Oeste 25 Sudoeste 0 941.2 0.8 68
2020-01-17 12:00:00 9 9 Sudoeste 25 Sudoeste 0 941.5 1.9 75
2020-01-17 11:00:00 8 10 Sudoeste 24 Oeste 0 941.1 2.2 86
2020-01-17 10:00:00 7.8 9 Sudoeste 21 Sudoeste 0 940.4 2.8 90
2020-01-17 09:00:00 6.8 9 Sudoeste 24 Sudoeste 0 939.6 2.4 93
2020-01-17 08:00:00 7.1 11 Oeste 28 Sudoeste 0.1 938.9 2.3 91
2020-01-17 07:00:00 7 10 Sur 28 Sur 0 937.6 1 86
2020-01-17 06:00:00 7.2 11 Sur 25 Sudoeste 0 937.2 0.8 84
2020-01-17 05:00:00 6.8 12 Sur 23 Sur 0 936.6 0.3 83
2020-01-17 04:00:00 6.6 7 Sur 22 Sur 0 936.6 0.6 87
2020-01-17 03:00:00 6.7 9 Sur 24 Sudoeste 0 936.4 0.7 87
2020-01-17 02:00:00 7.2 8 Sur 14 Sudoeste 0 936.3 0.9 87
2020-01-17 01:00:00 8.3 6 Sur 15 Sudoeste 0 936 1 88
2020-01-17 00:00:00 8.5 8 Sudoeste 23 Sudoeste 0.1 935.7 1.5 87
2020-01-16 23:00:00 9 12 Sur 37 Sudoeste 0 935.4 1.4 78
2020-01-16 22:00:00 9.1 19 Sur 39 Sur 0.1 935 1.6 75
2020-01-16 21:00:00 9.3 17 Sur 42 Sudoeste 0 934.2 1.3 70
2020-01-16 20:00:00 9.5 15 Sur 38 Sur 0.4 934 0.7 68
2020-01-16 19:00:00 9.7 15 Sur 35 Sur 0 933.4 -0.1 62
2020-01-16 18:00:00 10.3 16 Sur 37 Sur 0 932.9 -0.9 62
2020-01-16 17:00:00 10.8 14 Sur 40 Sur 0 933.3 -1.1 62
2020-01-16 16:00:00 11 16 Sur 41 Sur 0 933.5 -2 58
2020-01-16 15:00:00 10.9 15 Sur 39 Sur 0 933.8 -2.2 58
2020-01-16 14:00:00 12.6 15 Sur 37 Sur 0 934.4 -1.8 56
2020-01-16 13:00:00 11.6 19 Sur 41 Sur 0 935.5 -0.5 58
2020-01-16 12:00:00 11.1 19 Sur 37 Sudeste 0 936 0.4 64
2020-01-16 11:00:00 10.8 18 Sur 32 Sudeste 0 936.2 0.7 71
2020-01-16 10:00:00 10.2 10 Sur 31 Sudeste 0 936 0.8 79
2020-01-16 09:00:00 9.7 12 Sur 31 Sur 0 935.6 0.4 90
2020-01-16 08:00:00 9.8 6 Sur 14 Sur 0 935.5 0.1 89
2020-01-16 07:00:00 9.7 3 Sur 23 Sur 0 935.2 -0.3 89
2020-01-16 06:00:00 9.7 12 Sur 27 Sur 0 935.2 -0.5 90
2020-01-16 05:00:00 9.3 13 Sur 28 Sur 0 935.4 -0.8 90
2020-01-16 04:00:00 9.2 12 Sur 35 Sur 0 935.5 -0.5 88
2020-01-16 03:00:00 9.3 15 Sur 30 Sur 0 935.7 -0.2 89
2020-01-16 02:00:00 9.5 9 Sur 27 Sur 0 936.2 0.4 88
2020-01-16 01:00:00 9.2 14 Sur 31 Sur 0 936 0.2 88
2020-01-16 00:00:00 9.3 8 Sur 25 Sur 0 935.9 0.3 88
2020-01-15 23:00:00 10 12 Sur 24 Sur 0 935.8 0.1 87
2020-01-15 22:00:00 9.6 8 Sur 19 Sur 0 935.8 0.8 88
2020-01-15 21:00:00 9.2 10 Sur 20 Sur 0 935.6 1.2 89
2020-01-15 20:00:00 9.2 11 Sur 25 Sudoeste 0 935.7 1.8 89
2020-01-15 19:00:00 9.5 7 Sur 30 Sur 0 935 1.3 87
2020-01-15 18:00:00 9.7 14 Sur 35 Sur 0 934.4 1.1 85
2020-01-15 17:00:00 10.5 15 Sur 34 Sur 0 933.9 0.8 80
2020-01-15 16:00:00 11.8 15 Sur 33 Sur 0 933.7 -0.1 74
2020-01-15 15:00:00 10.9 19 Sur 35 Sur 0 933.3 -1.1 78
2020-01-15 14:00:00 10 4 Sudeste 27 Sur 0 933.1 -0.4 88
2020-01-15 13:00:00 7.3 6 Este 12 Este 0.1 933.8 2.2 92
2020-01-15 12:00:00 6.2 3 Oeste 29 Oeste 0.9 934.4 3.5 90
2020-01-15 11:00:00 8.4 16 Sur 44 Sur 0.2 933.5 2.9 85
2020-01-15 10:00:00 8.2 23 Sur 45 Sur 0 931.6 1.7 82
2020-01-15 09:00:00 7.7 21 Sur 45 Sur 0 930.9 0.8 80
2020-01-15 08:00:00 8 23 Sur 46 Sur 0 930.6 0.3 79
2020-01-15 07:00:00 7.7 15 Sur 35 Sur 0 929.9 -0.6 78
2020-01-15 06:00:00 7.8 14 Sur 34 Sur 0 930.1 -0.6 80
2020-01-15 05:00:00 7.6 19 Sur 39 Sudeste 0 930.3 -0.7 80
2020-01-15 04:00:00 7.6 16 Sur 42 Sudoeste 0 930.5 -0.7 79
2020-01-15 03:00:00 7.8 19 Sur 38 Sur 0 930.7 -0.4 81
2020-01-15 02:00:00 8 17 Sur 41 Sur 0 931 -0.1 80
2020-01-15 01:00:00 7.9 12 Sur 33 Sudoeste 0 931.2 0.2 82
2020-01-15 00:00:00 7.8 12 Sur 38 Sur 0 931.1 -0.2 84
2020-01-14 23:00:00 7.3 18 Sur 40 Sur 0 931.1 -0.3 87
2020-01-14 22:00:00 6.7 14 Sur 30 Sur 0 931 -0.4 87
2020-01-14 21:00:00 6.6 15 Sur 28 Sur 0 931.3 0.4 83
2020-01-14 20:00:00 7 15 Sur 29 Sur 0 931.4 0.2 79
2020-01-14 19:00:00 6.8 10 Sur 24 Sudoeste 0 931.4 0.4 78
2020-01-14 18:00:00 7.1 10 Sur 30 Sur 0 930.9 -0.6 75
2020-01-14 17:00:00 8.2 18 Sur 38 Sur 0 931.2 -0.6 70
2020-01-14 16:00:00 8.5 20 Sur 40 Sur 0 931 -1.6 71
2020-01-14 15:00:00 7.9 15 Sur 29 Sudoeste 0 931.5 -1.7 70
2020-01-14 14:00:00 8.7 10 Sur 24 Sur 0 931.8 -1.3 67
2020-01-14 13:00:00 8.1 11 Sur 24 Sudoeste 0 932.6 0 69
2020-01-14 12:00:00 7.8 11 Sur 26 Sur 0 933.2 0.3 69
2020-01-14 11:00:00 6.1 8 Sur 18 Sur 0 933.1 0.3 78
2020-01-14 10:00:00 2.8 4 Sudeste 9 Sur 0 932.6 -0.2 89
2020-01-14 09:00:00 1.3 3 Nordeste 10 Este 0 932.9 -0.2 91
2020-01-14 08:00:00 1.2 3 Este 9 Sudeste 0 932.8 -0.6 91
2020-01-14 07:00:00 0.4 5 Sur 14 Sur 0 932.8 -0.8 94
2020-01-14 06:00:00 -1.9 3 Este 7 Este 0 933.1 -0.2 93
2020-01-14 05:00:00 -1.5 0 Calma 4 Sudeste 0 933.4 0 93
2020-01-14 04:00:00 -1.1 4 Este 8 Este 0 933.6 -0.5 91
2020-01-14 03:00:00 -0.7 0 Calma 5 Sudoeste 0 933.3 -1.1 90
2020-01-14 02:00:00 0.2 2 Nordeste 6 Sur 0 933.4 -1.2 86
2020-01-14 01:00:00 0.5 0 Calma 6 Oeste 0 934.1 -0.1 82
2020-01-14 00:00:00 0.9 3 Nordeste 7 Sur 0 934.4 0.3 79
2020-01-13 23:00:00 1.6 5 Oeste 13 Oeste 0 934.6 1.4 75
2020-01-13 22:00:00 2 0 Calma 13 Oeste 0 934.2 1.1 63
2020-01-13 21:00:00 3.5 6 Oeste 13 Sur 0 934.1 1.2 54
2020-01-13 20:00:00 4.4 8 Sur 15 Sudeste 0 933.2 0.2 54
2020-01-13 19:00:00 5.9 7 Sur 21 Sur 0 933.1 -0.5 52
2020-01-13 18:00:00 9 5 Sur 15 Sudoeste 0 932.9 -1 46
2020-01-13 17:00:00 11.1 10 Sur 16 Sudoeste 0 933 -1.8 42
2020-01-13 16:00:00 10.2 4 Noroeste 14 Oeste 0 933.6 -2.6 52
2020-01-13 15:00:00 9.8 5 Oeste 11 Oeste 0 933.9 -3.3 50
2020-01-13 14:00:00 8.6 4 Sudoeste 12 Oeste 0 934.8 -2.4 60
2020-01-13 13:00:00 5.3 2 Sudoeste 11 Sur 0 936.2 -0.4 72
2020-01-13 12:00:00 1.7 0 Calma 8 Oeste 0 937.2 0.6 85
2020-01-13 11:00:00 -0.8 0 Calma 6 Oeste 0 937.2 0.9 93
2020-01-13 10:00:00 -2.9 0 Calma 3 Este 0 936.6 0 97
2020-01-13 09:00:00 -4 0 Calma 5 Sudeste 0 936.6 -0.3 97
2020-01-13 08:00:00 -3.6 0 Calma 6 Nordeste 0 936.3 -1.6 98
2020-01-13 07:00:00 -3.6 3 Este 7 Este 0 936.6 -1.7 98
2020-01-13 06:00:00 -3.4 0 Calma 10 Este 0 936.9 -1.8 98
2020-01-13 05:00:00 -3.4 3 Este 10 Este 0 937.9 -1.1 97
2020-01-13 04:00:00 -3.1 4 Este 12 Este 0 938.3 -1.4 97
2020-01-13 03:00:00 -2.6 3 Sudeste 10 Sudeste 0 938.7 -1.2 97
2020-01-13 02:00:00 -2.8 5 Este 8 Este 0 939 -1.1 95
2020-01-13 01:00:00 -2.2 0 Calma 5 Este 0 939.7 -0.8 97
2020-01-13 00:00:00 -2.1 2 Sudeste 7 Sudeste 0 939.9 -1.1 97
2020-01-12 23:00:00 -2 2 Nordeste 10 Este 0 940.1 -1.3 97
2020-01-12 22:00:00 -1.8 4 Este 12 Este 0 940.5 -0.4 96
2020-01-12 21:00:00 -1.5 7 Este 13 Este 0 941 0.5 93
2020-01-12 20:00:00 0.4 4 Este 10 Este 0 941.4 1.1 84
2020-01-12 19:00:00 2.3 6 Este 9 Nordeste 0 940.9 0.6 75
2020-01-12 18:00:00 5.1 4 Este 11 Este 0 940.5 -0.2 66
2020-01-12 17:00:00 6.8 5 Este 23 Este 0 940.3 -1.3 61
2020-01-12 16:00:00 8.5 8 Este 16 Este 0 940.3 -2.3 60
2020-01-12 15:00:00 8 4 Este 10 Este 0 940.7 -2.6 63
2020-01-12 14:00:00 5.1 3 Nordeste 10 Oeste 0 941.6 -1.4 72
2020-01-12 13:00:00 3.4 5 Nordeste 12 Nordeste 0 942.6 0.1 78
2020-01-12 12:00:00 3.5 0 Calma 8 Nordeste 0 943.3 1.3 80
2020-01-12 11:00:00 0.5 0 Calma 4 Sur 0 943 0.8 98
2020-01-12 10:00:00 -2.8 0 Calma 0 Calma 0 942.5 0.6 98
2020-01-12 09:00:00 -4.4 0 Calma -- -- 0 942 0.3 97
2020-01-12 08:00:00 -4.3 0 Calma 5 Sudeste 0 942.2 0.1 98
2020-01-12 07:00:00 -4 3 Este 6 Este 0 941.9 -0.3 98
2020-01-12 06:00:00 -3.3 0 Calma 6 Este 0 941.7 -0.4 98
2020-01-12 05:00:00 -2.8 0 Calma 7 Este 0 942.1 -0.1 98
2020-01-12 04:00:00 -2.4 0 Calma 6 Sudeste 0 942.2 0 98
2020-01-12 03:00:00 -1.9 0 Calma 6 Sudeste 0 942.1 -0.2 98
2020-01-12 02:00:00 -1.4 0 Calma 8 Este 0 942.2 -0.1 98
2020-01-12 01:00:00 -1.3 0 Calma 7 Nordeste 0 942.2 -0.2 98
2020-01-12 00:00:00 -0.7 3 Este 10 Este 0 942.3 0 98
2020-01-11 23:00:00 -0.5 3 Nordeste 10 Nordeste 0 942.3 -0.1 98
2020-01-11 22:00:00 -0.3 4 Sudeste 10 Este 0 942.4 0.3 98
2020-01-11 21:00:00 0.2 3 Este 12 Este 0 942.3 0.9 98
2020-01-11 20:00:00 0.4 6 Este 14 Nordeste 0 942.4 1.1 96
2020-01-11 19:00:00 1.7 5 Este 11 Nordeste 0 942.1 1 86
2020-01-11 18:00:00 4.2 6 Nordeste 11 Este 0 941.4 -0.2 79
2020-01-11 17:00:00 6.5 3 Nordeste 10 Este 0 941.3 -1 71
2020-01-11 16:00:00 7.1 4 Sudeste 10 Este 0 941.1 -2.2 71
2020-01-11 15:00:00 5.1 5 Este 13 Sudeste 0 941.6 -2.4 78
2020-01-11 14:00:00 3.8 5 Sudeste 12 Este 0 942.3 -1.4 87
2020-01-11 13:00:00 1.9 2 Este 12 Este 0 943.3 0 96
2020-01-11 12:00:00 1.2 0 Calma 12 Nordeste 0 944 1 98
2020-01-11 11:00:00 0.5 3 Este 9 Sudeste 0 943.7 0.9 98
2020-01-11 10:00:00 -0.5 0 Calma 6 Este 0 943.3 0.7 98
2020-01-11 09:00:00 -1.5 0 Calma 4 Este 0 943 0.7 97
2020-01-11 08:00:00 -1.8 0 Calma 5 Este 0 942.8 0.3 96
2020-01-11 07:00:00 -1.7 3 Este 6 Este 0 942.6 0 96
2020-01-11 06:00:00 -1.4 0 Calma 4 Sudeste 0 942.3 -0.6 96
2020-01-11 05:00:00 -1.1 0 Calma 7 Este 0 942.5 -0.3 95
2020-01-11 04:00:00 -1 4 Este 9 Este 0 942.6 -0.3 94
2020-01-11 03:00:00 -0.5 0 Calma 5 Este 0 942.9 0 94
2020-01-11 02:00:00 -0.1 0 Calma 3 Este 0 942.8 0.2 94
2020-01-11 01:00:00 0 0 Calma 7 Este 0 942.9 0.5 93
2020-01-11 00:00:00 0.5 0 Calma 5 Este 0 942.9 0.7 91
2020-01-10 23:00:00 1.1 3 Este 6 Este 0 942.6 0.8 89
2020-01-10 22:00:00 2 3 Este 6 Este 0 942.4 1.1 88
2020-01-10 21:00:00 2.6 0 Calma 9 Este 0 942.2 1 81
2020-01-10 20:00:00 4.3 5 Nordeste 8 Nordeste 0 941.8 1.1 75
2020-01-10 19:00:00 5.4 4 Este 13 Nordeste 0 941.3 0.8 68
2020-01-10 18:00:00 6.8 7 Nordeste 19 Este 0 941.2 1 61
2020-01-10 17:00:00 8.2 11 Este 21 Sudeste 0 940.7 0.7 55
2020-01-10 16:00:00 8.7 11 Nordeste 25 Nordeste 0 940.5 -0.4 53
2020-01-10 15:00:00 9.1 8 Nordeste 23 Nordeste 0 940.2 -1.7 53
2020-01-10 14:00:00 7.8 11 Nordeste 25 Nordeste 0 940 -1 54
2020-01-10 13:00:00 7.9 6 Este 18 Este 0 940.9 0.5 62
2020-01-10 12:00:00 6.5 5 Este 10 Este 0 941.9 1.6 70
2020-01-10 11:00:00 3.4 4 Este 8 Este 0 941 0.9 85
2020-01-10 10:00:00 -0.1 3 Este 7 Este 0 940.4 1.2 96
2020-01-10 09:00:00 -1.3 0 Calma 6 Este 0 940.3 1.3 95
2020-01-10 08:00:00 -0.8 0 Calma 6 Este 0 940.1 1 95
2020-01-10 07:00:00 0 3 Este 6 Este 0 939.2 -0.1 94
2020-01-10 06:00:00 0.4 0 Calma 4 Sudoeste 0 939 0.3 94
2020-01-10 05:00:00 1.2 0 Calma 7 Sudoeste 0 939.1 0.4 92
2020-01-10 04:00:00 1.8 0 Calma 7 Oeste 0 939.3 0.3 90
2020-01-10 03:00:00 2.6 3 Oeste 13 Oeste 0 938.7 -0.2 88
2020-01-10 02:00:00 3.6 6 Oeste 12 Oeste 0 938.7 0.2 85
2020-01-10 01:00:00 4.8 5 Oeste 17 Sudoeste 0 939 1.2 80
2020-01-10 00:00:00 6.5 4 Oeste 12 Oeste 0 938.9 1.4 88
2020-01-09 23:00:00 6.5 4 Oeste 14 Oeste 0 938.5 1.3 88
2020-01-09 22:00:00 6.7 3 Oeste 10 Oeste 0 937.8 0.9 86
2020-01-09 21:00:00 8.2 4 Oeste 18 Oeste 0 937.5 1.4 81
2020-01-09 20:00:00 9.5 9 Oeste 28 Oeste 0 937.2 1 80
2020-01-09 19:00:00 10.9 9 Oeste 26 Sudoeste 0 936.9 1.4 83
2020-01-09 18:00:00 11.2 9 Sudoeste 23 Oeste 0 936.1 0.4 80
2020-01-09 17:00:00 11.7 12 Sudoeste 32 Oeste 0 936.2 -1 76
2020-01-09 16:00:00 13.5 14 Sudoeste 27 Sudoeste 0 935.5 -2.6 65
2020-01-09 15:00:00 13.1 11 Sudoeste 23 Sudoeste 0 935.7 -3.7 70
2020-01-09 14:00:00 11.2 8 Sur 22 Sudoeste 0 937.2 -1.7 84
2020-01-09 13:00:00 8.8 6 Sudoeste 20 Noroeste 0 938.1 -0.3 92
2020-01-09 12:00:00 5.5 0 Calma 3 Este 0 939.4 1.3 85
2020-01-09 11:00:00 2.9 2 Este 6 Este 0 938.9 0.4 89
2020-01-09 10:00:00 1 5 Este 8 Este 0 938.4 0.1 95
2020-01-09 09:00:00 -0.1 4 Este 7 Este 0 938.1 0 96
2020-01-09 08:00:00 0.2 0 Calma 8 Este 0 938.5 -0.1 96
2020-01-09 07:00:00 0 0 Calma 5 Oeste 0 938.3 -0.6 96
2020-01-09 06:00:00 -0.2 0 Calma 5 Este 0 938.1 -0.7 95
2020-01-09 05:00:00 0.1 0 Calma 6 Este 0 938.6 -0.5 95
2020-01-09 04:00:00 0.3 0 Calma 4 Este 0 938.9 -0.8 94
2020-01-09 03:00:00 0.8 3 Este 5 Este 0 938.8 -1 93
2020-01-09 02:00:00 1.3 4 Este 7 Este 0 939.1 -0.9 92
2020-01-09 01:00:00 1.6 0 Calma 4 Oeste 0 939.7 -0.1 90
2020-01-09 00:00:00 2.1 0 Calma 5 Oeste 0 939.8 0.2 89
2020-01-08 23:00:00 2.5 0 Calma 4 Oeste 0 940 0.3 90
2020-01-08 22:00:00 3.2 0 Calma 2 Sudeste 0 939.8 0.3 86
2020-01-08 21:00:00 4.2 2 Este 5 Este 0 939.6 0.5 81
2020-01-08 20:00:00 5.6 3 Este 8 Este 0 939.7 0.5 74
2020-01-08 19:00:00 7.2 3 Este 10 Nordeste 0 939.5 0.2 65
2020-01-08 18:00:00 9.5 4 Nordeste 8 Este 0 939.1 -0.4 57
2020-01-08 17:00:00 11 4 Nordeste 12 Nordeste 0 939.2 -1 42
2020-01-08 16:00:00 10.2 6 Nordeste 11 Nordeste 0 939.3 -2 48
2020-01-08 15:00:00 8.6 5 Sudoeste 9 Sudoeste 0 939.5 -2.9 66
2020-01-08 14:00:00 5.8 2 Sudeste 6 Este 0 940.2 -2.3 81
2020-01-08 13:00:00 1.1 3 Este 9 Este 0 941.3 -1.3 97
2020-01-08 12:00:00 -0.4 3 Este 11 Este 0 942.4 0.2 98
2020-01-08 11:00:00 -1.5 3 Este 8 Sudeste 0 942.5 0.5 98
2020-01-08 10:00:00 -2.6 3 Este 9 Este 0 942.6 0.6 98
2020-01-08 09:00:00 -3.2 3 Nordeste 7 Nordeste 0 942.2 0.5 97
2020-01-08 08:00:00 -3.5 2 Este 7 Este 0 942 0.4 95
2020-01-08 07:00:00 -3.4 0 Calma 5 Sudeste 0 942 0 97
2020-01-08 06:00:00 -3.5 0 Calma 4 Este 0 941.7 -0.8 98
2020-01-08 05:00:00 -3.7 0 Calma 8 Este 0 941.6 -1.1 98
2020-01-08 04:00:00 -3.3 4 Este 9 Este 0 942 -1.1 98
2020-01-08 03:00:00 -3.1 5 Este 9 Este 0 942.5 -0.7 97
2020-01-08 02:00:00 -2.6 0 Calma 5 Este 0 942.7 -0.6 97
2020-01-08 01:00:00 -2.3 0 Calma 9 Este 0 943.1 -0.2 98
2020-01-08 00:00:00 -2.1 3 Este 9 Este 0 943.2 0.2 98
2020-01-07 23:00:00 -1.8 3 Nordeste 10 Este 0 943.3 0.6 97
2020-01-07 22:00:00 -1.3 3 Nordeste 8 Nordeste 0 943.3 0.9 94
2020-01-07 21:00:00 -0.5 4 Este 12 Este 0 943 1.8 94
2020-01-07 20:00:00 1.7 5 Este 8 Este 0 942.7 0.6 88
2020-01-07 19:00:00 3.6 5 Este 8 Este 0 942.4 0.3 83
2020-01-07 18:00:00 6.4 3 Nordeste 7 Este 0 941.2 -1.4 74
2020-01-07 17:00:00 8.3 3 Sudeste 9 Sudeste 0 942.1 -1.1 67
2020-01-07 16:00:00 7.1 5 Este 11 Sudeste 0 942.1 -1.7 70
2020-01-07 15:00:00 4.9 3 Este 12 Este 0 942.6 -1.8 80
2020-01-07 14:00:00 2.8 6 Este 12 Nordeste 0 943.2 -1.4 85
2020-01-07 13:00:00 0.8 4 Este 10 Nordeste 0 943.8 -0.5 94
2020-01-07 12:00:00 -0.2 3 Sudeste 12 Este 0 944.4 0.5 97
2020-01-07 11:00:00 -1.1 4 Este 13 Este 0 944.6 0.9 98
2020-01-07 10:00:00 -1.7 3 Nordeste 10 Nordeste 0 944.3 1 98
2020-01-07 09:00:00 -1.5 4 Nordeste 11 Nordeste 0 943.9 0.6 98
2020-01-07 08:00:00 -1.4 4 Este 14 Este 0 943.7 0.2 98
2020-01-07 07:00:00 -1 6 Este 12 Este 0 943.3 -0.3 98
2020-01-07 06:00:00 -1 5 Este 11 Este 0 943.3 -0.2 97
2020-01-07 05:00:00 -0.5 0 Calma 9 Norte 0 943.5 0.3 98
2020-01-07 04:00:00 -0.4 4 Este 14 Este 0 943.6 1 97
2020-01-07 03:00:00 -0.2 3 Nordeste 12 Nordeste 0 943.5 0.6 98
2020-01-07 02:00:00 -0.2 2 Nordeste 8 Este 0 943.2 0.4 98
2020-01-07 01:00:00 -0.1 0 Calma 10 Este 0 942.6 -0.1 98
2020-01-07 00:00:00 0.1 2 Nordeste 10 Este 0 942.9 0.6 98
2020-01-06 23:00:00 0.4 2 Nordeste 11 Este 0 942.8 0.9 97
2020-01-06 22:00:00 0.8 5 Este 11 Este 0 942.7 1.8 93
2020-01-06 21:00:00 2.7 4 Este 13 Este 0 942.3 1.9 91
2020-01-06 20:00:00 4.5 6 Nordeste 12 Nordeste 0 941.9 1.9 86
2020-01-06 19:00:00 5.9 3 Este 5 Oeste 0 940.9 1.1 74
2020-01-06 18:00:00 8.5 4 Sudoeste 8 Oeste 0 940.4 0.8 61
2020-01-06 17:00:00 10.1 4 Sudoeste 11 Noroeste 0 940 0.3 55
2020-01-06 16:00:00 10.2 3 Noroeste 10 Noroeste 0 939.8 -0.9 55
2020-01-06 15:00:00 9.5 3 Sudoeste 8 Sudeste 0 939.6 -2 62
2020-01-06 14:00:00 6.8 3 Sudeste 10 Este 0 939.7 -2.2 71
2020-01-06 13:00:00 3.4 2 Sudeste 8 Este 0 940.7 -0.6 93
2020-01-06 12:00:00 0.4 3 Sudeste 6 Sudeste 0 941.6 0.9 98
2020-01-06 11:00:00 -0.4 0 Calma 5 Este 0 941.9 1.7 98
2020-01-06 10:00:00 -1.4 0 Calma 12 Sudeste 0 941.3 1.4 98